Time,TemperatureF,DewpointF,PressureIn,WindDirection,WindDirectionDegrees,WindSpeedMPH,WindSpeedGustMPH,Humidity,HourlyPrecipIn,Conditions,Clouds,dailyrainin,SoftwareType,DateUTC
2013-08-06 00:00:00,64.8,64.0,29.92,SE,146,0.0,1.0,97,0.00,SCT,,0.00,WeatherDisplay:10.37,2013-08-06 04:00:00,
2013-08-06 01:00:00,64.9,64.1,29.92,SE,146,0.0,0.0,97,0.00,BKN,,0.00,WeatherDisplay:10.37,2013-08-06 05:00:00,
2013-08-06 02:00:00,65.1,64.2,29.92,SE,146,0.0,0.0,97,0.00,OVC,,0.00,WeatherDisplay:10.37,2013-08-06 06:00:00,
2013-08-06 03:00:00,64.7,63.9,29.90,SE,146,0.0,2.0,97,0.00,-RA,,0.00,WeatherDisplay:10.37,2013-08-06 07:00:00,
2013-08-06 04:00:00,64.5,63.9,29.90,SE,146,0.0,0.0,98,0.00,BKN,,0.00,WeatherDisplay:10.37,2013-08-06 08:00:00,
2013-08-06 05:00:00,64.8,64.2,29.91,SE,146,0.0,0.0,98,0.00,OVC,,0.00,WeatherDisplay:10.37,2013-08-06 09:00:00,
2013-08-06 06:00:00,64.5,63.9,29.90,SE,146,0.0,0.0,98,0.00,OVC,,0.00,WeatherDisplay:10.37,2013-08-06 10:00:00,
2013-08-06 07:00:00,64.7,64.1,29.92,SE,146,0.0,0.0,98,0.00,OVC,,0.00,WeatherDisplay:10.37,2013-08-06 11:00:00,
2013-08-06 08:00:00,66.2,65.6,29.93,SE,146,0.0,0.0,98,0.00,OVC,,0.00,WeatherDisplay:10.37,2013-08-06 12:00:00,
2013-08-06 09:00:00,69.8,67.0,29.94,East,80,0.0,4.0,91,0.00,SCT,,0.00,WeatherDisplay:10.37,2013-08-06 13:00:00,
2013-08-06 10:00:00,73.8,69.0,29.94,NW,319,0.0,3.0,85,0.00,BKN,,0.00,WeatherDisplay:10.37,2013-08-06 14:00:00,
2013-08-06 11:00:00,75.0,70.2,29.94,NE,44,0.0,1.0,85,0.00,OVC,,0.00,WeatherDisplay:10.37,2013-08-06 15:00:00,
2013-08-06 12:00:00,77.3,70.2,29.94,ESE,109,0.0,1.0,79,0.00,OVC,,0.00,WeatherDisplay:10.37,2013-08-06 16:00:00,
2013-08-06 13:00:00,78.7,68.1,29.94,SSE,157,1.0,4.0,70,0.00,OVC,,0.00,WeatherDisplay:10.37,2013-08-06 17:00:00,
2013-08-06 14:00:00,79.8,71.6,29.93,SSE,160,0.0,7.0,76,0.00,BKN,,0.00,WeatherDisplay:10.37,2013-08-06 18:00:00,
2013-08-06 15:00:00,81.1,72.0,29.92,SE,142,3.0,7.0,74,0.00,BKN,,0.00,WeatherDisplay:10.37,2013-08-06 19:00:00,
2013-08-06 16:00:00,80.0,73.3,29.90,SE,126,1.0,9.0,80,0.00,BKN,,0.00,WeatherDisplay:10.37,2013-08-06 20:00:00,
2013-08-06 17:00:00,79.6,74.0,29.89,SE,139,0.0,5.0,83,0.00,BKN,,0.00,WeatherDisplay:10.37,2013-08-06 21:00:00,
2013-08-06 18:00:00,78.3,75.2,29.91,SE,130,0.0,1.0,90,0.00,SCT,,0.00,WeatherDisplay:10.37,2013-08-06 22:00:00,
2013-08-06 19:00:00,76.6,73.8,29.90,SE,130,0.0,1.0,91,0.00,SCT,,0.00,WeatherDisplay:10.37,2013-08-06 23:00:00,
2013-08-06 20:00:00,74.9,72.7,29.91,SE,130,0.0,0.0,93,0.00,CLR,,0.00,WeatherDisplay:10.37,2013-08-07 00:00:00,
2013-08-06 21:00:00,73.0,71.8,29.90,SE,130,0.0,0.0,96,0.00,SCT,,0.00,WeatherDisplay:10.37,2013-08-07 01:00:00,
2013-08-06 22:00:00,71.6,71.0,29.92,SE,130,0.0,0.0,98,0.00,CLR,,0.00,WeatherDisplay:10.37,2013-08-07 02:00:00,
2013-08-06 23:00:00,71.2,70.6,29.94,SE,130,0.0,1.0,98,0.00,BKN,,0.00,WeatherDisplay:10.37,2013-08-07 03:00:00,